Chippewa Bay, New York
Current Conditions -  °F | °C
As of 5:06 PM on Thursday 23 Oct 2014 (Local Time) from KGTB Reporting Station
Overcast Overcast  
Wind Chill: 43°   Ceiling: 1800
Heat Index: 48°   Visibility: 10mi
Dew Point: 41°   Wind: 13mph
Humidity: 76%   Direction: 30°NNE
Pressure: 29.95"   Gusts: 21mph
Location:  44.44°N, 75.76°W
Report Text: KGTB 232106Z AUTO 03011G18KT 10SM OVC018 09/05 A2995 RMK AO2 DZE2106
Loading
Personal Weather Stations






























Interactive Weather Map
Tropical Storm Tracking
New forecast layout! Learn more

10-Day Weather Forecast

Advertisements
Track Severe Weather on mobile